sensor_id;sensor_type;location;lat;lon;timestamp;temperature;humidity
38020;DHT22;23829;51.350;17.286;2023-04-25T00:01:48;25.00;38.80
38020;DHT22;23829;51.350;17.286;2023-04-25T00:04:14;25.00;38.20
38020;DHT22;23829;51.350;17.286;2023-04-25T00:06:41;25.20;38.30
38020;DHT22;23829;51.350;17.286;2023-04-25T00:09:08;25.00;38.30
38020;DHT22;23829;51.350;17.286;2023-04-25T00:11:36;24.90;38.50
38020;DHT22;23829;51.350;17.286;2023-04-25T00:14:04;24.90;38.10
38020;DHT22;23829;51.350;17.286;2023-04-25T00:16:30;24.90;38.40
38020;DHT22;23829;51.350;17.286;2023-04-25T00:19:00;24.90;38.70
38020;DHT22;23829;51.350;17.286;2023-04-25T00:21:27;24.70;38.60
38020;DHT22;23829;51.350;17.286;2023-04-25T00:23:55;25.00;37.90
38020;DHT22;23829;51.350;17.286;2023-04-25T00:26:21;25.10;38.00
38020;DHT22;23829;51.350;17.286;2023-04-25T00:28:48;25.10;38.40
38020;DHT22;23829;51.350;17.286;2023-04-25T00:31:14;25.10;38.30
38020;DHT22;23829;51.350;17.286;2023-04-25T00:33:41;25.10;38.50
38020;DHT22;23829;51.350;17.286;2023-04-25T00:36:07;25.40;37.70
38020;DHT22;23829;51.350;17.286;2023-04-25T00:38:35;25.40;37.80
38020;DHT22;23829;51.350;17.286;2023-04-25T00:41:01;25.20;38.50
38020;DHT22;23829;51.350;17.286;2023-04-25T00:43:28;25.00;37.00
38020;DHT22;23829;51.350;17.286;2023-04-25T00:45:57;25.10;37.10
38020;DHT22;23829;51.350;17.286;2023-04-25T00:48:24;25.20;36.60
38020;DHT22;23829;51.350;17.286;2023-04-25T00:50:55;25.00;37.00
38020;DHT22;23829;51.350;17.286;2023-04-25T00:53:24;24.90;37.50
38020;DHT22;23829;51.350;17.286;2023-04-25T00:55:52;24.90;37.90
38020;DHT22;23829;51.350;17.286;2023-04-25T00:58:20;24.90;37.00
38020;DHT22;23829;51.350;17.286;2023-04-25T01:00:47;25.00;37.30
38020;DHT22;23829;51.350;17.286;2023-04-25T01:03:15;25.10;37.30
38020;DHT22;23829;51.350;17.286;2023-04-25T01:05:46;25.20;36.50
38020;DHT22;23829;51.350;17.286;2023-04-25T01:08:13;25.00;36.90
38020;DHT22;23829;51.350;17.286;2023-04-25T01:10:40;25.00;36.70
38020;DHT22;23829;51.350;17.286;2023-04-25T01:13:07;25.00;37.20
38020;DHT22;23829;51.350;17.286;2023-04-25T01:15:33;24.90;37.70
38020;DHT22;23829;51.350;17.286;2023-04-25T01:18:03;24.90;37.60
38020;DHT22;23829;51.350;17.286;2023-04-25T01:20:32;25.00;37.60
38020;DHT22;23829;51.350;17.286;2023-04-25T01:23:00;25.00;37.60
38020;DHT22;23829;51.350;17.286;2023-04-25T01:25:29;25.00;37.40
38020;DHT22;23829;51.350;17.286;2023-04-25T01:27:57;25.10;37.10
38020;DHT22;23829;51.350;17.286;2023-04-25T01:30:26;25.10;37.00
38020;DHT22;23829;51.350;17.286;2023-04-25T01:32:57;25.10;36.80
38020;DHT22;23829;51.350;17.286;2023-04-25T01:35:24;24.90;37.10
38020;DHT22;23829;51.350;17.286;2023-04-25T01:37:53;24.80;37.40
38020;DHT22;23829;51.350;17.286;2023-04-25T01:40:21;24.70;37.40
38020;DHT22;23829;51.350;17.286;2023-04-25T01:42:49;24.70;37.20
38020;DHT22;23829;51.350;17.286;2023-04-25T01:45:15;24.60;37.50
38020;DHT22;23829;51.350;17.286;2023-04-25T01:47:43;24.80;37.30
38020;DHT22;23829;51.350;17.286;2023-04-25T01:50:10;24.70;37.20
38020;DHT22;23829;51.350;17.286;2023-04-25T01:52:38;24.80;36.60
38020;DHT22;23829;51.350;17.286;2023-04-25T01:55:06;24.60;37.40
38020;DHT22;23829;51.350;17.286;2023-04-25T01:57:35;24.40;37.10
38020;DHT22;23829;51.350;17.286;2023-04-25T02:00:05;24.40;37.50
38020;DHT22;23829;51.350;17.286;2023-04-25T02:02:39;24.30;37.80
38020;DHT22;23829;51.350;17.286;2023-04-25T02:05:12;24.50;37.70
38020;DHT22;23829;51.350;17.286;2023-04-25T02:07:42;24.60;37.60
38020;DHT22;23829;51.350;17.286;2023-04-25T02:10:09;24.50;37.70
38020;DHT22;23829;51.350;17.286;2023-04-25T02:12:43;24.50;36.80
38020;DHT22;23829;51.350;17.286;2023-04-25T02:15:28;24.50;37.40
38020;DHT22;23829;51.350;17.286;2023-04-25T02:17:58;24.70;37.30
38020;DHT22;23829;51.350;17.286;2023-04-25T02:20:27;24.60;36.70
38020;DHT22;23829;51.350;17.286;2023-04-25T02:22:55;24.50;37.10
38020;DHT22;23829;51.350;17.286;2023-04-25T02:25:22;24.70;36.90
38020;DHT22;23829;51.350;17.286;2023-04-25T02:27:49;24.30;36.90
38020;DHT22;23829;51.350;17.286;2023-04-25T02:30:17;24.20;37.50
38020;DHT22;23829;51.350;17.286;2023-04-25T02:32:43;24.00;37.40
38020;DHT22;23829;51.350;17.286;2023-04-25T02:35:10;23.90;38.00
38020;DHT22;23829;51.350;17.286;2023-04-25T02:37:39;24.00;37.40
38020;DHT22;23829;51.350;17.286;2023-04-25T02:40:06;24.10;36.90
38020;DHT22;23829;51.350;17.286;2023-04-25T02:42:34;24.10;37.20
38020;DHT22;23829;51.350;17.286;2023-04-25T02:45:01;24.00;37.30
38020;DHT22;23829;51.350;17.286;2023-04-25T02:47:29;24.10;37.60
38020;DHT22;23829;51.350;17.286;2023-04-25T02:49:55;24.10;36.90
38020;DHT22;23829;51.350;17.286;2023-04-25T02:52:22;24.10;37.00
38020;DHT22;23829;51.350;17.286;2023-04-25T02:55:01;24.10;37.20
38020;DHT22;23829;51.350;17.286;2023-04-25T02:57:29;24.10;37.00
38020;DHT22;23829;51.350;17.286;2023-04-25T02:59:56;24.20;36.80
38020;DHT22;23829;51.350;17.286;2023-04-25T03:02:22;24.30;36.80
38020;DHT22;23829;51.350;17.286;2023-04-25T03:04:49;24.20;37.00
38020;DHT22;23829;51.350;17.286;2023-04-25T03:07:16;24.30;36.90
38020;DHT22;23829;51.350;17.286;2023-04-25T03:09:42;24.30;36.90
38020;DHT22;23829;51.350;17.286;2023-04-25T03:12:08;24.40;36.30
38020;DHT22;23829;51.350;17.286;2023-04-25T03:14:35;24.40;36.30
38020;DHT22;23829;51.350;17.286;2023-04-25T03:17:01;24.30;36.70
38020;DHT22;23829;51.350;17.286;2023-04-25T03:19:28;24.40;36.70
38020;DHT22;23829;51.350;17.286;2023-04-25T03:21:54;24.20;37.20
38020;DHT22;23829;51.350;17.286;2023-04-25T03:24:21;24.30;36.50
38020;DHT22;23829;51.350;17.286;2023-04-25T03:26:48;24.10;36.90
38020;DHT22;23829;51.350;17.286;2023-04-25T03:29:14;24.00;36.80
38020;DHT22;23829;51.350;17.286;2023-04-25T03:31:43;24.10;37.10
38020;DHT22;23829;51.350;17.286;2023-04-25T03:34:09;24.20;36.80
38020;DHT22;23829;51.350;17.286;2023-04-25T03:36:36;24.20;36.90
38020;DHT22;23829;51.350;17.286;2023-04-25T03:39:02;24.10;36.60
38020;DHT22;23829;51.350;17.286;2023-04-25T03:41:31;24.00;36.70
38020;DHT22;23829;51.350;17.286;2023-04-25T03:44:03;24.10;37.10
38020;DHT22;23829;51.350;17.286;2023-04-25T03:46:30;24.30;36.40
38020;DHT22;23829;51.350;17.286;2023-04-25T03:48:56;24.30;36.20
38020;DHT22;23829;51.350;17.286;2023-04-25T03:51:30;24.20;36.20
38020;DHT22;23829;51.350;17.286;2023-04-25T03:53:57;24.10;37.00
38020;DHT22;23829;51.350;17.286;2023-04-25T03:56:42;24.20;36.70
38020;DHT22;23829;51.350;17.286;2023-04-25T03:59:17;24.10;36.80
38020;DHT22;23829;51.350;17.286;2023-04-25T04:01:45;24.10;36.80
38020;DHT22;23829;51.350;17.286;2023-04-25T04:04:11;24.30;36.30
38020;DHT22;23829;51.350;17.286;2023-04-25T04:06:39;24.20;36.20
38020;DHT22;23829;51.350;17.286;2023-04-25T04:09:25;24.20;36.20
38020;DHT22;23829;51.350;17.286;2023-04-25T04:11:53;24.10;36.50
38020;DHT22;23829;51.350;17.286;2023-04-25T04:14:20;24.20;36.30
38020;DHT22;23829;51.350;17.286;2023-04-25T04:16:50;24.20;36.30
38020;DHT22;23829;51.350;17.286;2023-04-25T04:19:16;24.30;36.10
38020;DHT22;23829;51.350;17.286;2023-04-25T04:22:04;24.40;35.70
38020;DHT22;23829;51.350;17.286;2023-04-25T04:24:31;24.20;36.20
38020;DHT22;23829;51.350;17.286;2023-04-25T04:27:02;24.10;37.00
38020;DHT22;23829;51.350;17.286;2023-04-25T04:29:33;24.20;36.50
38020;DHT22;23829;51.350;17.286;2023-04-25T04:32:13;24.00;36.40
38020;DHT22;23829;51.350;17.286;2023-04-25T04:34:41;23.80;36.90
38020;DHT22;23829;51.350;17.286;2023-04-25T04:37:08;23.90;36.70
38020;DHT22;23829;51.350;17.286;2023-04-25T04:39:36;24.10;36.20
38020;DHT22;23829;51.350;17.286;2023-04-25T04:42:22;23.90;36.50
38020;DHT22;23829;51.350;17.286;2023-04-25T04:45:16;23.80;37.00
38020;DHT22;23829;51.350;17.286;2023-04-25T04:47:58;24.00;37.50
38020;DHT22;23829;51.350;17.286;2023-04-25T04:50:33;24.10;36.40
38020;DHT22;23829;51.350;17.286;2023-04-25T04:53:22;24.10;36.30
38020;DHT22;23829;51.350;17.286;2023-04-25T04:56:09;24.10;36.60
38020;DHT22;23829;51.350;17.286;2023-04-25T04:58:54;23.80;36.60
38020;DHT22;23829;51.350;17.286;2023-04-25T05:01:40;24.00;37.10
38020;DHT22;23829;51.350;17.286;2023-04-25T05:04:24;24.10;36.60
38020;DHT22;23829;51.350;17.286;2023-04-25T05:07:05;24.30;35.90
38020;DHT22;23829;51.350;17.286;2023-04-25T05:09:31;24.70;36.00
38020;DHT22;23829;51.350;17.286;2023-04-25T05:12:17;25.00;35.60
38020;DHT22;23829;51.350;17.286;2023-04-25T05:15:16;24.70;36.80
38020;DHT22;23829;51.350;17.286;2023-04-25T05:18:01;24.70;35.70
38020;DHT22;23829;51.350;17.286;2023-04-25T05:20:44;24.90;35.40
38020;DHT22;23829;51.350;17.286;2023-04-25T05:23:26;24.90;35.30
38020;DHT22;23829;51.350;17.286;2023-04-25T05:26:20;24.60;35.50
38020;DHT22;23829;51.350;17.286;2023-04-25T05:29:07;24.80;35.60
38020;DHT22;23829;51.350;17.286;2023-04-25T05:31:51;24.90;35.40
38020;DHT22;23829;51.350;17.286;2023-04-25T05:34:19;24.90;35.10
38020;DHT22;23829;51.350;17.286;2023-04-25T05:36:52;25.40;34.40
38020;DHT22;23829;51.350;17.286;2023-04-25T05:39:19;25.00;34.60
38020;DHT22;23829;51.350;17.286;2023-04-25T05:42:04;25.20;35.20
38020;DHT22;23829;51.350;17.286;2023-04-25T05:44:54;25.40;34.40
38020;DHT22;23829;51.350;17.286;2023-04-25T05:47:39;25.10;34.70
38020;DHT22;23829;51.350;17.286;2023-04-25T05:50:11;25.00;34.80
38020;DHT22;23829;51.350;17.286;2023-04-25T05:52:54;24.80;35.40
38020;DHT22;23829;51.350;17.286;2023-04-25T05:55:38;24.80;36.20
38020;DHT22;23829;51.350;17.286;2023-04-25T05:58:22;25.30;34.70
38020;DHT22;23829;51.350;17.286;2023-04-25T06:00:49;25.30;34.20
38020;DHT22;23829;51.350;17.286;2023-04-25T06:03:16;25.50;33.60
38020;DHT22;23829;51.350;17.286;2023-04-25T06:05:43;25.60;34.40
38020;DHT22;23829;51.350;17.286;2023-04-25T06:08:10;25.70;33.30
38020;DHT22;23829;51.350;17.286;2023-04-25T06:10:37;25.60;34.30
38020;DHT22;23829;51.350;17.286;2023-04-25T06:13:04;25.10;33.50
38020;DHT22;23829;51.350;17.286;2023-04-25T06:15:33;25.00;33.70
38020;DHT22;23829;51.350;17.286;2023-04-25T06:18:00;25.00;33.70
38020;DHT22;23829;51.350;17.286;2023-04-25T06:20:27;25.00;33.50
38020;DHT22;23829;51.350;17.286;2023-04-25T06:22:57;24.50;34.20
38020;DHT22;23829;51.350;17.286;2023-04-25T06:25:32;24.90;34.80
38020;DHT22;23829;51.350;17.286;2023-04-25T06:27:59;25.20;34.10
38020;DHT22;23829;51.350;17.286;2023-04-25T06:30:26;25.00;34.00
38020;DHT22;23829;51.350;17.286;2023-04-25T06:32:56;24.90;34.40
38020;DHT22;23829;51.350;17.286;2023-04-25T06:35:24;25.00;34.20
38020;DHT22;23829;51.350;17.286;2023-04-25T06:37:50;25.40;33.80
38020;DHT22;23829;51.350;17.286;2023-04-25T06:40:21;25.80;32.40
38020;DHT22;23829;51.350;17.286;2023-04-25T06:42:47;25.60;33.00
38020;DHT22;23829;51.350;17.286;2023-04-25T06:45:33;25.50;32.60
38020;DHT22;23829;51.350;17.286;2023-04-25T06:48:00;25.70;33.50
38020;DHT22;23829;51.350;17.286;2023-04-25T06:50:28;25.50;33.00
38020;DHT22;23829;51.350;17.286;2023-04-25T06:52:54;25.50;33.00
38020;DHT22;23829;51.350;17.286;2023-04-25T06:55:21;26.10;31.70
38020;DHT22;23829;51.350;17.286;2023-04-25T06:58:03;26.10;32.30
38020;DHT22;23829;51.350;17.286;2023-04-25T07:00:52;25.80;31.90
38020;DHT22;23829;51.350;17.286;2023-04-25T07:03:21;25.90;31.50
38020;DHT22;23829;51.350;17.286;2023-04-25T07:05:49;25.90;31.90
38020;DHT22;23829;51.350;17.286;2023-04-25T07:08:16;26.00;31.70
38020;DHT22;23829;51.350;17.286;2023-04-25T07:10:43;25.50;32.20
38020;DHT22;23829;51.350;17.286;2023-04-25T07:13:10;25.90;32.60
38020;DHT22;23829;51.350;17.286;2023-04-25T07:15:36;26.00;32.90
38020;DHT22;23829;51.350;17.286;2023-04-25T07:18:03;25.90;32.70
38020;DHT22;23829;51.350;17.286;2023-04-25T07:20:29;25.60;31.80
38020;DHT22;23829;51.350;17.286;2023-04-25T07:22:57;25.30;32.40
38020;DHT22;23829;51.350;17.286;2023-04-25T07:25:24;25.30;32.70
38020;DHT22;23829;51.350;17.286;2023-04-25T07:27:51;25.40;32.10
38020;DHT22;23829;51.350;17.286;2023-04-25T07:30:19;25.30;32.60
38020;DHT22;23829;51.350;17.286;2023-04-25T07:32:45;25.00;32.90
38020;DHT22;23829;51.350;17.286;2023-04-25T07:35:12;25.10;33.70
38020;DHT22;23829;51.350;17.286;2023-04-25T07:37:38;25.30;32.80
38020;DHT22;23829;51.350;17.286;2023-04-25T07:40:18;25.20;32.70
38020;DHT22;23829;51.350;17.286;2023-04-25T07:42:48;25.00;33.30
38020;DHT22;23829;51.350;17.286;2023-04-25T07:45:19;25.00;33.00
38020;DHT22;23829;51.350;17.286;2023-04-25T07:47:46;25.00;32.60
38020;DHT22;23829;51.350;17.286;2023-04-25T07:50:12;24.80;34.40
38020;DHT22;23829;51.350;17.286;2023-04-25T07:52:39;25.10;32.80
38020;DHT22;23829;51.350;17.286;2023-04-25T07:55:15;25.10;33.50
38020;DHT22;23829;51.350;17.286;2023-04-25T07:57:51;25.20;33.00
38020;DHT22;23829;51.350;17.286;2023-04-25T08:00:20;25.60;33.10
38020;DHT22;23829;51.350;17.286;2023-04-25T08:02:53;25.80;31.90
38020;DHT22;23829;51.350;17.286;2023-04-25T08:05:21;25.30;33.00
38020;DHT22;23829;51.350;17.286;2023-04-25T08:07:52;25.50;32.90
38020;DHT22;23829;51.350;17.286;2023-04-25T08:10:18;26.00;32.70
38020;DHT22;23829;51.350;17.286;2023-04-25T08:12:47;25.90;31.20
38020;DHT22;23829;51.350;17.286;2023-04-25T08:15:14;25.90;31.70
38020;DHT22;23829;51.350;17.286;2023-04-25T08:17:40;26.20;31.70
38020;DHT22;23829;51.350;17.286;2023-04-25T08:20:07;26.30;30.70
38020;DHT22;23829;51.350;17.286;2023-04-25T08:22:35;26.50;30.30
38020;DHT22;23829;51.350;17.286;2023-04-25T08:25:36;26.60;29.80
38020;DHT22;23829;51.350;17.286;2023-04-25T08:28:05;26.30;30.60
38020;DHT22;23829;51.350;17.286;2023-04-25T08:30:32;26.10;30.00
38020;DHT22;23829;51.350;17.286;2023-04-25T08:32:59;25.70;30.90
38020;DHT22;23829;51.350;17.286;2023-04-25T08:35:48;25.60;31.20
38020;DHT22;23829;51.350;17.286;2023-04-25T08:38:15;25.80;31.00
38020;DHT22;23829;51.350;17.286;2023-04-25T08:40:43;26.20;31.00
38020;DHT22;23829;51.350;17.286;2023-04-25T08:43:19;26.40;31.50
38020;DHT22;23829;51.350;17.286;2023-04-25T08:45:46;26.60;30.40
38020;DHT22;23829;51.350;17.286;2023-04-25T08:48:28;26.60;29.40
38020;DHT22;23829;51.350;17.286;2023-04-25T08:50:56;27.10;29.30
38020;DHT22;23829;51.350;17.286;2023-04-25T08:53:29;27.00;29.80
38020;DHT22;23829;51.350;17.286;2023-04-25T08:55:59;26.90;30.00
38020;DHT22;23829;51.350;17.286;2023-04-25T08:58:28;27.20;29.30
38020;DHT22;23829;51.350;17.286;2023-04-25T09:00:55;27.30;29.30
38020;DHT22;23829;51.350;17.286;2023-04-25T09:03:24;27.40;29.70
38020;DHT22;23829;51.350;17.286;2023-04-25T09:05:52;27.30;30.50
38020;DHT22;23829;51.350;17.286;2023-04-25T09:08:20;27.20;29.10
38020;DHT22;23829;51.350;17.286;2023-04-25T09:10:48;27.50;30.90
38020;DHT22;23829;51.350;17.286;2023-04-25T09:13:27;27.20;29.30
38020;DHT22;23829;51.350;17.286;2023-04-25T09:16:17;27.30;29.20
38020;DHT22;23829;51.350;17.286;2023-04-25T09:19:34;27.00;30.20
38020;DHT22;23829;51.350;17.286;2023-04-25T09:22:10;27.00;29.50
38020;DHT22;23829;51.350;17.286;2023-04-25T09:24:44;27.10;29.00
38020;DHT22;23829;51.350;17.286;2023-04-25T09:27:21;27.10;29.70
38020;DHT22;23829;51.350;17.286;2023-04-25T09:30:19;27.20;29.20
38020;DHT22;23829;51.350;17.286;2023-04-25T09:33:07;26.90;29.50
38020;DHT22;23829;51.350;17.286;2023-04-25T09:35:42;26.90;29.30
38020;DHT22;23829;51.350;17.286;2023-04-25T09:38:14;26.30;29.30
38020;DHT22;23829;51.350;17.286;2023-04-25T09:41:02;26.40;29.70
38020;DHT22;23829;51.350;17.286;2023-04-25T09:43:45;26.40;29.60
38020;DHT22;23829;51.350;17.286;2023-04-25T09:46:13;26.30;29.70
38020;DHT22;23829;51.350;17.286;2023-04-25T09:48:51;26.40;29.80
38020;DHT22;23829;51.350;17.286;2023-04-25T09:51:27;26.30;30.80
38020;DHT22;23829;51.350;17.286;2023-04-25T09:53:55;26.40;30.50
38020;DHT22;23829;51.350;17.286;2023-04-25T09:56:31;26.60;30.40
38020;DHT22;23829;51.350;17.286;2023-04-25T09:59:05;26.60;28.90
38020;DHT22;23829;51.350;17.286;2023-04-25T10:01:35;27.00;28.90
38020;DHT22;23829;51.350;17.286;2023-04-25T10:04:28;26.90;28.80
38020;DHT22;23829;51.350;17.286;2023-04-25T10:07:01;26.90;29.20
38020;DHT22;23829;51.350;17.286;2023-04-25T10:09:29;26.70;28.70
38020;DHT22;23829;51.350;17.286;2023-04-25T10:12:00;26.70;28.90
38020;DHT22;23829;51.350;17.286;2023-04-25T10:14:26;26.90;30.00
38020;DHT22;23829;51.350;17.286;2023-04-25T10:16:54;26.80;28.60
38020;DHT22;23829;51.350;17.286;2023-04-25T10:19:22;26.70;29.30
38020;DHT22;23829;51.350;17.286;2023-04-25T10:22:16;26.90;29.30
38020;DHT22;23829;51.350;17.286;2023-04-25T10:24:44;26.90;29.50
38020;DHT22;23829;51.350;17.286;2023-04-25T10:27:12;26.70;27.70
38020;DHT22;23829;51.350;17.286;2023-04-25T10:29:41;26.60;27.10
38020;DHT22;23829;51.350;17.286;2023-04-25T10:32:09;26.80;27.50
38020;DHT22;23829;51.350;17.286;2023-04-25T10:34:40;27.10;26.90
38020;DHT22;23829;51.350;17.286;2023-04-25T10:37:10;27.20;27.60
38020;DHT22;23829;51.350;17.286;2023-04-25T10:39:40;27.10;26.70
38020;DHT22;23829;51.350;17.286;2023-04-25T10:42:07;27.00;26.00
38020;DHT22;23829;51.350;17.286;2023-04-25T10:44:34;27.00;26.90
38020;DHT22;23829;51.350;17.286;2023-04-25T10:47:02;27.00;26.40
38020;DHT22;23829;51.350;17.286;2023-04-25T10:49:33;26.70;27.20
38020;DHT22;23829;51.350;17.286;2023-04-25T10:52:14;27.00;28.40
38020;DHT22;23829;51.350;17.286;2023-04-25T10:54:51;27.00;27.40
38020;DHT22;23829;51.350;17.286;2023-04-25T11:00:17;26.60;27.50
38020;DHT22;23829;51.350;17.286;2023-04-25T11:02:46;26.30;28.00
38020;DHT22;23829;51.350;17.286;2023-04-25T11:05:33;26.30;27.90
38020;DHT22;23829;51.350;17.286;2023-04-25T11:08:01;26.30;28.30
38020;DHT22;23829;51.350;17.286;2023-04-25T11:10:30;26.30;28.20
38020;DHT22;23829;51.350;17.286;2023-04-25T11:12:57;26.40;28.30
38020;DHT22;23829;51.350;17.286;2023-04-25T11:15:25;26.70;27.40
38020;DHT22;23829;51.350;17.286;2023-04-25T11:17:52;26.60;27.10
38020;DHT22;23829;51.350;17.286;2023-04-25T11:20:20;26.50;27.70
38020;DHT22;23829;51.350;17.286;2023-04-25T11:22:47;26.60;27.50
38020;DHT22;23829;51.350;17.286;2023-04-25T11:25:15;26.60;27.50
38020;DHT22;23829;51.350;17.286;2023-04-25T11:27:55;26.10;28.50
38020;DHT22;23829;51.350;17.286;2023-04-25T11:30:25;26.10;28.20
38020;DHT22;23829;51.350;17.286;2023-04-25T11:32:51;26.50;28.30
38020;DHT22;23829;51.350;17.286;2023-04-25T11:35:19;27.00;28.00
38020;DHT22;23829;51.350;17.286;2023-04-25T11:37:46;27.30;27.80
38020;DHT22;23829;51.350;17.286;2023-04-25T11:40:13;27.20;27.20
38020;DHT22;23829;51.350;17.286;2023-04-25T11:42:44;27.30;27.10
38020;DHT22;23829;51.350;17.286;2023-04-25T11:45:11;27.20;27.10
38020;DHT22;23829;51.350;17.286;2023-04-25T11:47:38;27.20;27.70
38020;DHT22;23829;51.350;17.286;2023-04-25T11:50:06;27.10;27.70
38020;DHT22;23829;51.350;17.286;2023-04-25T11:52:37;27.20;27.60
38020;DHT22;23829;51.350;17.286;2023-04-25T11:55:13;27.20;27.50
38020;DHT22;23829;51.350;17.286;2023-04-25T11:57:41;27.20;27.40
38020;DHT22;23829;51.350;17.286;2023-04-25T12:00:16;27.40;27.80
38020;DHT22;23829;51.350;17.286;2023-04-25T12:02:44;27.70;27.80
38020;DHT22;23829;51.350;17.286;2023-04-25T12:05:13;27.20;27.70
38020;DHT22;23829;51.350;17.286;2023-04-25T12:07:39;27.60;28.10
38020;DHT22;23829;51.350;17.286;2023-04-25T12:10:09;27.40;27.70
38020;DHT22;23829;51.350;17.286;2023-04-25T12:12:37;27.40;27.10
38020;DHT22;23829;51.350;17.286;2023-04-25T12:17:39;26.50;27.80
38020;DHT22;23829;51.350;17.286;2023-04-25T12:20:11;26.40;28.60
38020;DHT22;23829;51.350;17.286;2023-04-25T12:22:39;26.30;28.60
38020;DHT22;23829;51.350;17.286;2023-04-25T12:25:06;26.60;28.60
38020;DHT22;23829;51.350;17.286;2023-04-25T12:27:33;26.60;29.20
38020;DHT22;23829;51.350;17.286;2023-04-25T12:30:00;26.80;28.20
38020;DHT22;23829;51.350;17.286;2023-04-25T12:32:27;27.20;27.90
38020;DHT22;23829;51.350;17.286;2023-04-25T12:34:54;27.50;27.40
38020;DHT22;23829;51.350;17.286;2023-04-25T12:37:21;27.70;27.50
38020;DHT22;23829;51.350;17.286;2023-04-25T12:39:47;27.90;27.20
38020;DHT22;23829;51.350;17.286;2023-04-25T12:42:13;27.70;26.70
38020;DHT22;23829;51.350;17.286;2023-04-25T12:44:40;27.40;26.80
38020;DHT22;23829;51.350;17.286;2023-04-25T12:47:07;27.10;27.70
38020;DHT22;23829;51.350;17.286;2023-04-25T12:49:33;27.20;28.10
38020;DHT22;23829;51.350;17.286;2023-04-25T12:52:00;26.80;28.10
38020;DHT22;23829;51.350;17.286;2023-04-25T12:54:26;26.60;28.30
38020;DHT22;23829;51.350;17.286;2023-04-25T12:56:53;26.80;28.00
38020;DHT22;23829;51.350;17.286;2023-04-25T12:59:19;26.80;28.10
38020;DHT22;23829;51.350;17.286;2023-04-25T13:01:47;27.00;28.00
38020;DHT22;23829;51.350;17.286;2023-04-25T13:04:13;27.00;27.70
38020;DHT22;23829;51.350;17.286;2023-04-25T13:06:40;27.20;27.80
38020;DHT22;23829;51.350;17.286;2023-04-25T13:09:06;26.70;28.20
38020;DHT22;23829;51.350;17.286;2023-04-25T13:11:34;26.80;28.00
38020;DHT22;23829;51.350;17.286;2023-04-25T13:14:00;27.00;27.90
38020;DHT22;23829;51.350;17.286;2023-04-25T13:16:27;26.80;28.10
38020;DHT22;23829;51.350;17.286;2023-04-25T13:18:54;27.00;28.30
38020;DHT22;23829;51.350;17.286;2023-04-25T13:21:21;26.90;28.00
38020;DHT22;23829;51.350;17.286;2023-04-25T13:23:48;26.60;28.20
38020;DHT22;23829;51.350;17.286;2023-04-25T13:26:16;26.90;28.00
38020;DHT22;23829;51.350;17.286;2023-04-25T13:28:42;26.60;28.50
38020;DHT22;23829;51.350;17.286;2023-04-25T13:31:08;26.50;28.30
38020;DHT22;23829;51.350;17.286;2023-04-25T13:33:35;26.90;28.70
38020;DHT22;23829;51.350;17.286;2023-04-25T13:36:02;27.50;28.40
38020;DHT22;23829;51.350;17.286;2023-04-25T13:38:28;27.60;28.10
38020;DHT22;23829;51.350;17.286;2023-04-25T13:40:55;27.40;28.30
38020;DHT22;23829;51.350;17.286;2023-04-25T13:43:22;27.70;27.90
38020;DHT22;23829;51.350;17.286;2023-04-25T13:45:49;27.80;27.40
38020;DHT22;23829;51.350;17.286;2023-04-25T13:48:18;27.50;28.00
38020;DHT22;23829;51.350;17.286;2023-04-25T13:50:45;27.70;28.50
38020;DHT22;23829;51.350;17.286;2023-04-25T13:53:13;27.90;27.70
38020;DHT22;23829;51.350;17.286;2023-04-25T13:55:40;28.30;27.80
38020;DHT22;23829;51.350;17.286;2023-04-25T13:58:08;28.20;27.20
38020;DHT22;23829;51.350;17.286;2023-04-25T14:00:39;27.90;27.70
38020;DHT22;23829;51.350;17.286;2023-04-25T14:03:07;27.70;27.80
38020;DHT22;23829;51.350;17.286;2023-04-25T14:05:37;27.70;27.60
38020;DHT22;23829;51.350;17.286;2023-04-25T14:08:07;27.60;28.00
38020;DHT22;23829;51.350;17.286;2023-04-25T14:10:36;27.60;27.70
38020;DHT22;23829;51.350;17.286;2023-04-25T14:13:04;27.40;27.90
38020;DHT22;23829;51.350;17.286;2023-04-25T14:15:32;27.40;28.00
38020;DHT22;23829;51.350;17.286;2023-04-25T14:18:00;27.40;28.10
38020;DHT22;23829;51.350;17.286;2023-04-25T14:20:28;27.60;27.90
38020;DHT22;23829;51.350;17.286;2023-04-25T14:22:56;27.80;27.90
38020;DHT22;23829;51.350;17.286;2023-04-25T14:25:25;27.90;27.80
38020;DHT22;23829;51.350;17.286;2023-04-25T14:27:52;27.80;27.80
38020;DHT22;23829;51.350;17.286;2023-04-25T14:30:21;27.90;28.00
38020;DHT22;23829;51.350;17.286;2023-04-25T14:32:51;28.10;27.40
38020;DHT22;23829;51.350;17.286;2023-04-25T14:35:17;27.50;28.30
38020;DHT22;23829;51.350;17.286;2023-04-25T14:37:45;27.50;28.10
38020;DHT22;23829;51.350;17.286;2023-04-25T14:40:12;27.70;27.70
38020;DHT22;23829;51.350;17.286;2023-04-25T14:42:42;27.50;28.00
38020;DHT22;23829;51.350;17.286;2023-04-25T14:45:10;27.50;28.10
38020;DHT22;23829;51.350;17.286;2023-04-25T14:47:38;27.50;28.10
38020;DHT22;23829;51.350;17.286;2023-04-25T14:50:06;27.30;28.10
38020;DHT22;23829;51.350;17.286;2023-04-25T14:52:34;27.20;27.90
38020;DHT22;23829;51.350;17.286;2023-04-25T14:55:01;27.30;28.20
38020;DHT22;23829;51.350;17.286;2023-04-25T14:57:34;27.30;28.20
38020;DHT22;23829;51.350;17.286;2023-04-25T15:00:01;27.00;28.90
38020;DHT22;23829;51.350;17.286;2023-04-25T15:02:29;26.90;28.60
38020;DHT22;23829;51.350;17.286;2023-04-25T15:04:57;27.00;28.90
38020;DHT22;23829;51.350;17.286;2023-04-25T15:07:23;27.00;28.60
38020;DHT22;23829;51.350;17.286;2023-04-25T15:09:49;27.30;28.10
38020;DHT22;23829;51.350;17.286;2023-04-25T15:12:17;27.30;28.50
38020;DHT22;23829;51.350;17.286;2023-04-25T15:14:44;27.10;28.40
38020;DHT22;23829;51.350;17.286;2023-04-25T15:17:11;27.10;28.90
38020;DHT22;23829;51.350;17.286;2023-04-25T15:19:40;27.30;28.50
38020;DHT22;23829;51.350;17.286;2023-04-25T15:22:07;27.30;28.60
38020;DHT22;23829;51.350;17.286;2023-04-25T15:24:34;27.20;28.80
38020;DHT22;23829;51.350;17.286;2023-04-25T15:27:01;27.20;29.20
38020;DHT22;23829;51.350;17.286;2023-04-25T15:29:28;27.30;28.60
38020;DHT22;23829;51.350;17.286;2023-04-25T15:31:56;27.10;28.60
38020;DHT22;23829;51.350;17.286;2023-04-25T15:34:23;26.80;28.40
38020;DHT22;23829;51.350;17.286;2023-04-25T15:36:49;26.60;28.70
38020;DHT22;23829;51.350;17.286;2023-04-25T15:39:15;26.70;29.20
38020;DHT22;23829;51.350;17.286;2023-04-25T15:41:42;26.70;29.20